Time;durP1;ratioP1;P1;durP2;ratioP2;P2;SDS_P1;SDS_P2;PMS_P1;PMS_P2;Temp;Humidity;BMP_temperature;BMP_pressure;BME280_temperature;BME280_humidity;BME280_pressure;Samples;Min_cycle;Max_cycle;Signal;HPM_P1;HPM_P2
2022/02/11 00:07:56;;;;;;;25.17;12.15;;;;;;;4.31;61.19;100446.56;4456139;32;33232;-87
2022/02/11 00:10:25;;;;;;;22.85;11.23;;;;;;;4.58;60.51;100439.38;4442125;32;33820;-87
2022/02/11 00:12:54;;;;;;;24.45;11.43;;;;;;;4.76;60.01;100435.72;4458635;32;33386;-87
2022/02/11 00:17:59;;;;;;;24.30;11.88;;;;;;;4.72;60.32;100429.66;4458759;32;33873;-86
2022/02/11 00:20:26;;;;;;;20.52;11.30;;;;;;;4.87;59.60;100429.47;4435056;32;33057;-86
2022/02/11 00:22:54;;;;;;;17.95;11.10;;;;;;;4.71;59.91;100427.91;4434490;32;32955;-86
2022/02/11 00:25:22;;;;;;;22.13;11.63;;;;;;;5.08;58.89;100430.13;4458528;32;34538;-86
2022/02/11 00:30:50;;;;;;;21.52;10.68;;;;;;;4.78;59.18;100424.34;4467871;32;34287;-86
2022/02/11 00:33:50;;;;;;;18.37;10.53;;;;;;;4.71;59.34;100432.28;4461047;32;33064;-86
2022/02/11 00:36:11;;;;;;;18.90;10.10;;;;;;;4.58;59.52;100434.13;4444883;32;32569;-86
2022/02/11 00:53:28;;;;;;;19.40;11.30;;;;;;;4.22;60.46;100454.47;4447883;32;32614;-88
2022/02/11 01:06:10;;;;;;;21.90;11.30;;;;;;;3.94;61.38;100447.69;4461063;32;33155;-87
2022/02/11 01:08:40;;;;;;;21.87;11.63;;;;;;;4.14;61.11;100448.44;4462993;32;34616;-86
2022/02/11 01:11:17;;;;;;;24.08;11.43;;;;;;;4.14;60.83;100453.69;4437091;32;33189;-86
2022/02/11 01:13:44;;;;;;;17.98;9.80;;;;;;;4.07;61.02;100451.97;4443549;32;32590;-86
2022/02/11 01:16:18;;;;;;;18.30;10.68;;;;;;;4.07;60.88;100449.34;4445921;32;32693;-86
2022/02/11 01:18:53;;;;;;;17.67;10.38;;;;;;;4.00;61.12;100453.75;4453823;32;32810;-86
2022/02/11 01:21:29;;;;;;;19.15;11.57;;;;;;;4.03;61.02;100452.88;4448404;32;33730;-86
2022/02/11 01:24:21;;;;;;;20.33;11.52;;;;;;;4.05;60.63;100451.13;4446912;32;33423;-86
2022/02/11 01:30:02;;;;;;;20.58;10.32;;;;;;;4.00;60.69;100445.94;4427705;32;32451;-84
2022/02/11 01:35:11;;;;;;;18.52;10.10;;;;;;;3.98;60.60;100442.44;4459293;32;33831;-83
2022/02/11 01:37:54;;;;;;;19.70;10.55;;;;;;;3.91;60.77;100435.53;4446961;32;32864;-83
2022/02/11 01:40:57;;;;;;;29.92;11.45;;;;;;;3.82;61.01;100432.97;4457947;32;34674;-83
2022/02/11 01:54:14;;;;;;;21.00;12.02;;;;;;;3.93;60.12;100425.06;4460507;32;33924;-84
2022/02/11 02:02:58;;;;;;;23.08;11.55;;;;;;;4.02;59.92;100422.38;4462881;32;33197;-84
2022/02/11 02:34:09;;;;;;;21.25;10.55;;;;;;;3.69;61.04;100386.91;4450073;32;33790;-86
2022/02/11 02:50:21;;;;;;;19.12;10.05;;;;;;;2.87;64.70;100382.97;4458717;32;33637;-84
2022/02/11 02:58:24;;;;;;;16.37;8.93;;;;;;;3.12;65.03;100404.59;4454190;32;33698;-84
2022/02/11 04:23:17;;;;;;;18.37;8.88;;;;;;;2.79;63.30;100411.66;4447600;32;33404;-85
2022/02/11 04:55:36;;;;;;;34.83;15.73;;;;;;;3.18;62.60;100384.59;4448066;32;32810;-84
2022/02/11 05:00:50;;;;;;;29.02;13.32;;;;;;;3.11;62.70;100388.09;4460855;32;34170;-83
2022/02/11 05:03:18;;;;;;;33.72;15.23;;;;;;;3.16;62.60;100391.53;4445556;32;32225;-84
2022/02/11 05:05:52;;;;;;;28.15;12.55;;;;;;;3.27;61.83;100397.56;4432139;32;33393;-84
2022/02/11 05:08:30;;;;;;;32.90;15.32;;;;;;;2.77;63.53;100408.19;4443529;32;33246;-84
2022/02/11 05:10:58;;;;;;;31.23;15.30;;;;;;;2.75;63.47;100405.59;4447104;32;33627;-84
2022/02/11 05:13:26;;;;;;;27.33;12.48;;;;;;;3.19;62.62;100412.41;4447031;32;33227;-84
2022/02/11 05:15:54;;;;;;;28.70;13.20;;;;;;;2.89;64.28;100412.50;4457806;32;34266;-85
2022/02/11 05:18:21;;;;;;;20.92;11.25;;;;;;;2.90;63.84;100403.81;4433270;32;32711;-85
2022/02/11 05:20:49;;;;;;;19.35;10.38;;;;;;;2.50;67.05;100419.53;4425186;32;33234;-85
2022/02/11 05:23:17;;;;;;;17.85;9.40;;;;;;;2.54;66.34;100416.06;4462212;32;33238;-85
2022/02/11 05:25:44;;;;;;;19.10;10.27;;;;;;;2.72;66.07;100421.25;4435319;32;32406;-85
2022/02/11 05:28:13;;;;;;;21.02;10.63;;;;;;;2.88;65.88;100418.59;4442609;32;34494;-85
2022/02/11 05:30:41;;;;;;;18.52;9.52;;;;;;;2.99;64.50;100424.63;4449108;32;32729;-85
2022/02/11 05:33:10;;;;;;;22.87;10.20;;;;;;;2.91;64.87;100426.41;4447023;32;33912;-85
2022/02/11 05:35:38;;;;;;;23.85;11.20;;;;;;;3.17;64.47;100415.88;4436864;32;32040;-85
2022/02/11 05:38:06;;;;;;;19.70;10.60;;;;;;;3.42;63.12;100414.03;4423478;32;33009;-85
2022/02/11 05:40:34;;;;;;;20.50;10.88;;;;;;;3.31;63.48;100427.13;4437340;32;33840;-88
2022/02/11 05:43:02;;;;;;;21.02;10.40;;;;;;;3.12;63.55;100418.50;4438632;32;34664;-87
2022/02/11 05:45:30;;;;;;;24.87;11.25;;;;;;;2.88;64.27;100418.59;4443210;32;33445;-88
2022/02/11 05:47:57;;;;;;;22.02;10.90;;;;;;;3.21;62.76;100421.09;4433315;32;33765;-86
2022/02/11 05:50:25;;;;;;;24.12;11.77;;;;;;;2.90;64.23;100414.25;4437249;32;33962;-86
2022/02/11 05:53:05;;;;;;;22.37;10.07;;;;;;;3.44;62.85;100417.53;4423596;32;32324;-86
2022/02/11 05:55:34;;;;;;;18.77;9.27;;;;;;;2.79;64.73;100422.94;4447782;32;34581;-87
2022/02/11 05:58:02;;;;;;;14.23;7.70;;;;;;;2.73;64.53;100428.19;4446671;32;32563;-88
2022/02/11 06:00:31;;;;;;;20.02;9.45;;;;;;;3.04;63.58;100413.34;4449451;32;32810;-86
2022/02/11 06:02:59;;;;;;;17.92;9.63;;;;;;;2.65;64.85;100419.50;4433127;32;33159;-87
2022/02/11 06:05:27;;;;;;;13.98;7.75;;;;;;;2.89;64.49;100421.19;4422518;32;34158;-86
2022/02/11 06:07:55;;;;;;;19.62;8.82;;;;;;;3.01;64.29;100415.09;4445518;32;33225;-86
2022/02/11 06:10:22;;;;;;;17.33;9.10;;;;;;;2.94;64.54;100416.81;4447252;32;34300;-86
2022/02/11 06:12:50;;;;;;;24.05;11.63;;;;;;;3.15;63.99;100415.03;4446416;32;33082;-87
2022/02/11 06:15:18;;;;;;;25.55;11.65;;;;;;;3.33;63.41;100410.63;4439714;32;33958;-87
2022/02/11 06:17:46;;;;;;;24.05;13.52;;;;;;;3.25;63.56;100404.56;4451010;32;34760;-87
2022/02/11 06:20:14;;;;;;;24.17;11.65;;;;;;;3.49;63.04;100413.13;4434547;32;35985;-86
2022/02/11 06:22:44;;;;;;;21.48;11.38;;;;;;;3.46;63.04;100411.41;4437436;32;32703;-87
2022/02/11 06:25:13;;;;;;;26.35;12.60;;;;;;;3.31;63.64;100416.69;4443621;32;34353;-86
2022/02/11 06:27:44;;;;;;;29.40;12.82;;;;;;;3.51;63.17;100414.00;4427659;32;32495;-87
2022/02/11 06:30:13;;;;;;;25.60;12.00;;;;;;;3.56;62.90;100422.66;4451276;32;34141;-87
2022/02/11 06:32:41;;;;;;;24.63;12.52;;;;;;;3.54;62.75;100416.59;4441945;32;33709;-87
2022/02/11 06:35:11;;;;;;;23.00;11.48;;;;;;;3.66;62.61;100427.00;4449032;32;34026;-87
2022/02/11 06:37:42;;;;;;;31.37;13.43;;;;;;;3.68;62.51;100417.38;4455953;32;33977;-88
2022/02/11 06:40:11;;;;;;;34.83;14.52;;;;;;;3.64;62.56;100417.41;4440116;32;33945;-88
2022/02/11 06:42:40;;;;;;;28.67;13.85;;;;;;;3.79;62.38;100418.19;4445598;32;33948;-87
2022/02/11 06:45:09;;;;;;;29.00;13.80;;;;;;;3.94;62.19;100421.56;4444377;32;34026;-87
2022/02/11 06:47:36;;;;;;;33.90;16.05;;;;;;;3.83;62.46;100417.28;4452357;32;33968;-88
2022/02/11 06:50:05;;;;;;;31.55;15.02;;;;;;;3.83;62.55;100425.12;4443381;32;34282;-87
2022/02/11 06:52:33;;;;;;;30.17;15.10;;;;;;;3.91;62.66;100419.84;4432586;32;32312;-87
2022/02/11 06:55:02;;;;;;;36.83;14.80;;;;;;;4.08;62.27;100427.56;4455063;32;34581;-87
2022/02/11 06:57:30;;;;;;;28.65;14.77;;;;;;;4.10;62.50;100426.69;4442838;32;32928;-87
2022/02/11 06:59:59;;;;;;;25.40;13.98;;;;;;;4.08;62.53;100423.22;4441423;32;34337;-88
2022/02/11 07:02:32;;;;;;;25.92;13.75;;;;;;;4.15;62.45;100429.28;4436588;32;33752;-87
2022/02/11 07:04:59;;;;;;;27.35;15.45;;;;;;;4.25;62.51;100425.69;4441153;32;33336;-87
2022/02/11 07:07:27;;;;;;;25.77;13.38;;;;;;;4.31;62.31;100425.62;4428514;32;34322;-87
2022/02/11 07:09:55;;;;;;;32.90;15.82;;;;;;;4.38;62.33;100416.03;4444276;32;32473;-88
2022/02/11 07:12:23;;;;;;;31.67;17.62;;;;;;;4.26;62.91;100416.97;4441918;32;32700;-87
2022/02/11 07:14:50;;;;;;;28.50;16.92;;;;;;;4.28;62.99;100416.97;4449911;32;34765;-87
2022/02/11 07:17:18;;;;;;;33.65;17.60;;;;;;;4.37;63.07;100415.16;4454780;32;34519;-88
2022/02/11 07:19:46;;;;;;;44.58;19.37;;;;;;;4.76;62.33;100404.31;4444656;32;33327;-87
2022/02/11 07:22:14;;;;;;;39.65;19.05;;;;;;;4.77;62.78;100401.69;4444135;32;32294;-86
2022/02/11 07:24:42;;;;;;;49.47;21.52;;;;;;;4.85;62.81;100392.00;4445479;32;33938;-87
2022/02/11 07:27:10;;;;;;;43.33;21.08;;;;;;;4.84;63.16;100397.25;4428774;32;33003;-87
2022/02/11 07:29:38;;;;;;;41.50;21.92;;;;;;;4.77;63.50;100392.97;4439667;32;33800;-87
2022/02/11 07:32:06;;;;;;;49.03;23.90;;;;;;;5.16;62.92;100393.41;4448444;32;34302;-88
2022/02/11 07:34:34;;;;;;;46.08;23.27;;;;;;;5.37;62.71;100391.38;4443647;32;32433;-87
2022/02/11 07:37:03;;;;;;;45.17;25.12;;;;;;;5.52;62.58;100384.22;4445308;32;32658;-87
2022/02/11 07:39:49;;;;;;;46.90;24.77;;;;;;;5.92;62.05;100378.41;4444965;32;32557;-87
2022/02/11 07:42:18;;;;;;;51.17;25.83;;;;;;;5.98;62.21;100381.81;4438341;32;32100;-87
2022/02/11 07:45:05;;;;;;;48.17;25.37;;;;;;;6.11;62.12;100374.59;4442635;32;33709;-87
2022/02/11 07:47:32;;;;;;;51.97;24.52;;;;;;;6.53;61.54;100374.78;4441759;32;33011;-87
2022/02/11 07:50:00;;;;;;;43.72;23.42;;;;;;;6.62;61.26;100371.97;4440676;32;32818;-87
2022/02/11 07:52:27;;;;;;;40.10;22.17;;;;;;;6.44;61.41;100370.53;4439129;32;32792;-87
2022/02/11 07:54:56;;;;;;;51.63;25.77;;;;;;;6.44;61.19;100372.31;4453073;32;33551;-87
2022/02/11 07:57:24;;;;;;;48.58;24.02;;;;;;;6.45;61.33;100377.53;4428786;32;32972;-87
2022/02/11 07:59:52;;;;;;;37.53;19.55;;;;;;;6.72;61.12;100375.31;4451553;32;32655;-87
2022/02/11 08:02:21;;;;;;;41.47;22.17;;;;;;;7.03;60.49;100368.56;4438556;32;33347;-87
2022/02/11 08:04:49;;;;;;;43.75;21.73;;;;;;;7.46;60.33;100367.66;4428473;32;33566;-87
2022/02/11 08:07:16;;;;;;;35.03;18.30;;;;;;;7.80;59.82;100369.53;4428811;32;33528;-88
2022/02/11 08:09:44;;;;;;;33.83;16.15;;;;;;;7.86;59.03;100375.50;4444912;32;34339;-87
2022/02/11 08:12:13;;;;;;;34.38;15.57;;;;;;;8.08;58.64;100367.97;4441212;32;32585;-87
2022/02/11 08:14:40;;;;;;;30.88;15.32;;;;;;;7.93;58.65;100373.59;4441133;32;32812;-87
2022/02/11 08:17:08;;;;;;;36.90;14.85;;;;;;;8.26;57.50;100364.03;4453688;32;34351;-87
2022/02/11 08:19:36;;;;;;;32.13;14.25;;;;;;;8.59;56.79;100357.06;4431983;32;32979;-89
2022/02/11 08:22:03;;;;;;;23.92;13.20;;;;;;;8.70;56.11;100362.03;4432231;32;33708;-88
2022/02/11 08:24:31;;;;;;;21.73;12.13;;;;;;;8.88;55.84;100355.41;4437831;32;32804;-88
2022/02/11 08:26:59;;;;;;;24.37;12.35;;;;;;;9.05;55.58;100357.53;4438953;32;33540;-89
2022/02/11 08:29:31;;;;;;;24.27;10.43;;;;;;;9.09;55.65;100361.81;4450358;32;33702;-88
2022/02/11 08:31:59;;;;;;;19.12;9.23;;;;;;;9.34;55.33;100361.97;4441358;32;32751;-89
2022/02/11 08:34:26;;;;;;;18.92;10.57;;;;;;;9.52;54.62;100368.47;4430628;32;33799;-89
2022/02/11 08:36:54;;;;;;;21.33;10.82;;;;;;;9.69;53.74;100371.47;4433147;32;33087;-87
2022/02/11 08:39:21;;;;;;;18.55;9.35;;;;;;;10.00;52.48;100376.63;4443325;32;33253;-88
2022/02/11 08:41:49;;;;;;;19.15;8.73;;;;;;;10.16;51.83;100372.59;4440133;32;31941;-89
2022/02/11 08:44:16;;;;;;;21.45;9.93;;;;;;;10.38;51.14;100370.09;4427683;32;32423;-87
2022/02/11 08:46:45;;;;;;;15.63;8.95;;;;;;;10.37;51.32;100378.94;4433939;32;34439;-87
2022/02/11 08:49:13;;;;;;;21.48;9.32;;;;;;;10.57;51.22;100369.47;4443010;32;33287;-87
2022/02/11 08:51:41;;;;;;;20.27;9.20;;;;;;;10.53;50.91;100360.78;4437470;32;33807;-87
2022/02/11 08:54:08;;;;;;;17.83;9.43;;;;;;;10.75;50.58;100350.34;4429727;32;33631;-89
2022/02/11 08:56:39;;;;;;;23.02;10.30;;;;;;;10.75;50.30;100345.06;4437436;32;33623;-87
2022/02/11 08:59:07;;;;;;;20.62;10.50;;;;;;;10.72;50.67;100339.88;4446290;32;33518;-86
2022/02/11 09:01:35;;;;;;;25.25;11.38;;;;;;;11.36;49.31;100339.31;4424814;32;32485;-86
2022/02/11 09:04:03;;;;;;;19.20;9.50;;;;;;;11.71;48.49;100343.22;4450648;32;34073;-86
2022/02/11 09:06:30;;;;;;;26.12;10.80;;;;;;;11.47;48.50;100335.31;4429097;32;32637;-86
2022/02/11 09:08:58;;;;;;;18.70;9.98;;;;;;;11.80;48.49;100332.25;4450618;32;34344;-86
2022/02/11 09:11:26;;;;;;;20.45;9.93;;;;;;;12.18;48.15;100329.88;4449655;32;33458;-86
2022/02/11 09:13:54;;;;;;;16.55;7.90;;;;;;;12.56;47.04;100328.22;4443711;32;33403;-86
2022/02/11 09:16:22;;;;;;;12.43;6.72;;;;;;;12.80;45.89;100326.28;4459614;32;33947;-86
2022/02/11 09:18:49;;;;;;;17.85;10.38;;;;;;;13.01;45.36;100324.47;4443521;32;32065;-86
2022/02/11 09:21:17;;;;;;;21.98;10.10;;;;;;;13.14;44.83;100327.41;4432392;32;32762;-87
2022/02/11 09:23:45;;;;;;;23.48;12.55;;;;;;;13.32;44.31;100327.47;4454043;32;34040;-86
2022/02/11 09:26:18;;;;;;;15.45;7.43;;;;;;;13.31;44.30;100325.75;4444495;32;33891;-87
2022/02/11 09:28:46;;;;;;;14.77;7.55;;;;;;;13.44;43.77;100319.88;4447860;32;33477;-87
2022/02/11 09:31:13;;;;;;;14.55;8.15;;;;;;;13.41;44.46;100304.94;4448890;32;33219;-87
2022/02/11 09:33:41;;;;;;;18.08;8.38;;;;;;;13.82;43.78;100310.94;4438889;32;34660;-86
2022/02/11 09:36:10;;;;;;;17.85;6.95;;;;;;;14.07;44.02;100313.22;4440308;32;33050;-86
2022/02/11 09:38:38;;;;;;;13.02;5.45;;;;;;;13.89;42.63;100308.81;4446541;32;33023;-86
2022/02/11 09:41:07;;;;;;;9.20;5.93;;;;;;;14.34;42.22;100310.12;4451046;32;32401;-86
2022/02/11 09:43:38;;;;;;;10.50;6.37;;;;;;;14.38;42.54;100327.59;4436017;32;32667;-86
2022/02/11 09:46:07;;;;;;;13.55;6.40;;;;;;;14.26;42.32;100338.87;4431835;32;33405;-86
2022/02/11 09:48:34;;;;;;;16.83;7.20;;;;;;;13.71;43.26;100337.09;4434408;32;32940;-86
2022/02/11 09:51:00;;;;;;;18.25;7.20;;;;;;;14.13;42.74;100332.44;4425569;32;32909;-87
2022/02/11 09:53:29;;;;;;;14.23;8.00;;;;;;;14.35;43.10;100327.78;4444350;32;32815;-86
2022/02/11 09:55:56;;;;;;;15.98;7.32;;;;;;;14.24;42.69;100327.44;4437551;32;33373;-87
2022/02/11 09:58:24;;;;;;;13.75;7.82;;;;;;;14.79;41.60;100324.63;4449699;32;33894;-86
2022/02/11 10:00:53;;;;;;;17.83;8.40;;;;;;;15.04;41.50;100317.06;4437327;32;33599;-87
2022/02/11 10:03:26;;;;;;;13.40;7.22;;;;;;;15.06;40.97;100322.31;4426602;32;34409;-87
2022/02/11 10:06:01;;;;;;;15.25;7.75;;;;;;;15.44;40.54;100322.88;4459987;32;33575;-87
2022/02/11 10:08:35;;;;;;;13.48;7.00;;;;;;;15.81;39.16;100320.84;4440612;32;30898;-89
2022/02/11 10:11:07;;;;;;;14.70;7.80;;;;;;;16.05;38.84;100319.44;4455083;32;33176;-89
2022/02/11 10:13:40;;;;;;;15.77;8.85;;;;;;;15.59;40.11;100316.69;4440241;32;33988;-90
2022/02/11 10:16:13;;;;;;;13.98;8.45;;;;;;;15.48;40.32;100315.59;4451883;32;32887;-88
2022/02/11 10:18:43;;;;;;;17.65;8.20;;;;;;;15.89;39.43;100310.59;4440414;32;34290;-85
2022/02/11 10:21:20;;;;;;;13.02;8.70;;;;;;;16.23;39.40;100312.16;4436967;32;33754;-85
2022/02/11 10:23:51;;;;;;;16.87;8.80;;;;;;;16.43;38.57;100303.00;4440285;32;32729;-85
2022/02/11 10:26:20;;;;;;;18.45;8.20;;;;;;;16.76;37.07;100312.56;4422146;32;34321;-85
2022/02/11 10:28:50;;;;;;;15.45;8.13;;;;;;;16.95;36.09;100302.53;4453895;32;33515;-85
2022/02/11 10:31:29;;;;;;;14.75;9.50;;;;;;;16.60;36.36;100302.81;4439819;32;34076;-88
2022/02/11 10:34:11;;;;;;;21.42;8.43;;;;;;;16.33;37.06;100300.03;4445566;32;34279;-86
2022/02/11 10:36:46;;;;;;;15.82;9.15;;;;;;;16.02;37.54;100311.63;4456881;32;34308;-87
2022/02/11 10:39:19;;;;;;;23.25;7.57;;;;;;;15.96;37.89;100306.66;4442155;32;33059;-85
2022/02/11 10:41:49;;;;;;;17.73;9.45;;;;;;;15.90;38.46;100306.13;4445088;32;33351;-85
2022/02/11 10:44:20;;;;;;;17.30;8.15;;;;;;;16.02;38.06;100298.28;4449552;32;33763;-85
2022/02/11 10:47:04;;;;;;;15.70;8.73;;;;;;;16.10;37.33;100298.72;4442439;32;32569;-85
2022/02/11 10:49:39;;;;;;;18.08;9.68;;;;;;;15.94;37.84;100297.87;4430735;32;33810;-85
2022/02/11 10:52:15;;;;;;;15.35;9.75;;;;;;;15.60;38.77;100289.13;4446691;32;33026;-85
2022/02/11 10:54:44;;;;;;;15.27;8.50;;;;;;;15.69;39.84;100298.44;4436844;32;33307;-85
2022/02/11 10:57:14;;;;;;;19.73;10.15;;;;;;;16.12;38.38;100294.13;4463590;32;34814;-86
2022/02/11 10:59:44;;;;;;;15.52;9.32;;;;;;;16.10;39.46;100289.88;4444841;32;32772;-86
2022/02/11 11:02:16;;;;;;;17.05;10.43;;;;;;;16.21;40.99;100283.91;4440314;32;32574;-85
2022/02/11 11:04:47;;;;;;;19.23;8.82;;;;;;;16.58;38.37;100283.41;4446686;32;33557;-86
2022/02/11 11:07:21;;;;;;;15.00;8.73;;;;;;;16.89;37.74;100276.19;4434224;32;34217;-86
2022/02/11 11:10:13;;;;;;;18.95;9.68;;;;;;;17.19;36.89;100277.91;4425476;32;33103;-86
2022/02/11 11:12:43;;;;;;;18.45;9.90;;;;;;;17.15;36.53;100275.44;4444546;32;32375;-86
2022/02/11 11:15:12;;;;;;;16.80;10.93;;;;;;;16.96;37.58;100279.38;4442800;32;34538;-86
2022/02/11 11:17:41;;;;;;;22.90;11.30;;;;;;;17.26;36.88;100271.22;4439474;32;34358;-86
2022/02/11 11:20:09;;;;;;;18.73;10.32;;;;;;;16.98;37.69;100269.44;4435317;32;32845;-86
2022/02/11 11:22:40;;;;;;;15.85;10.65;;;;;;;17.69;35.30;100255.09;4427829;32;32148;-86
2022/02/11 11:25:09;;;;;;;19.57;12.37;;;;;;;17.50;36.32;100256.28;4437730;32;34001;-85
2022/02/11 11:27:53;;;;;;;17.73;11.00;;;;;;;16.52;37.92;100257.13;4433045;32;33078;-86
2022/02/11 11:30:33;;;;;;;18.23;11.32;;;;;;;16.71;37.90;100250.63;4448260;32;34755;-86
2022/02/11 11:33:07;;;;;;;20.95;12.02;;;;;;;16.76;37.59;100253.91;4466145;32;34343;-86
2022/02/11 11:35:38;;;;;;;23.38;12.77;;;;;;;17.03;37.96;100256.66;4460649;32;33890;-86
2022/02/11 11:38:14;;;;;;;18.25;12.02;;;;;;;17.28;36.91;100250.63;4460663;32;33618;-87
2022/02/11 11:41:04;;;;;;;22.95;12.25;;;;;;;17.69;36.43;100244.41;4461859;32;33522;-87
2022/02/11 11:43:34;;;;;;;21.35;11.18;;;;;;;18.09;35.55;100248.84;4454444;32;32632;-87
2022/02/11 11:46:17;;;;;;;17.65;11.43;;;;;;;17.97;35.71;100244.31;4437408;32;33638;-87
2022/02/11 11:48:52;;;;;;;16.83;11.63;;;;;;;17.93;35.80;100253.47;4446617;32;34304;-87
2022/02/11 11:51:21;;;;;;;20.77;12.32;;;;;;;17.59;36.12;100249.50;4443282;32;34492;-87
2022/02/11 11:53:49;;;;;;;17.55;11.50;;;;;;;17.75;36.87;100249.38;4446937;32;33362;-87
2022/02/11 11:56:36;;;;;;;18.90;12.15;;;;;;;18.27;35.24;100238.69;4444207;32;33277;-87
2022/02/11 11:59:25;;;;;;;25.00;13.52;;;;;;;18.23;35.98;100239.88;4450361;32;33833;-89
2022/02/11 12:02:10;;;;;;;19.08;11.38;;;;;;;17.27;36.73;100246.25;4435066;32;33703;-86
2022/02/11 12:04:41;;;;;;;19.60;12.85;;;;;;;17.55;36.52;100235.47;4447282;32;33476;-86
2022/02/11 12:07:22;;;;;;;24.60;13.52;;;;;;;16.89;37.72;100238.84;4468578;32;33466;-85
2022/02/11 12:09:56;;;;;;;28.90;12.60;;;;;;;17.07;38.14;100243.03;4446556;32;32387;-86
2022/02/11 12:12:32;;;;;;;22.98;12.57;;;;;;;17.72;36.42;100230.84;4447351;32;32461;-86
2022/02/11 12:15:03;;;;;;;24.12;12.80;;;;;;;18.07;34.90;100224.00;4443375;32;32837;-86
2022/02/11 12:17:30;;;;;;;23.83;13.43;;;;;;;18.02;35.26;100225.28;4448189;32;33341;-85
2022/02/11 12:19:58;;;;;;;18.75;11.15;;;;;;;18.47;34.39;100228.44;4440913;32;33077;-86
2022/02/11 12:22:30;;;;;;;24.05;12.27;;;;;;;18.04;35.28;100234.06;4432905;32;34550;-86
2022/02/11 12:27:50;;;;;;;18.67;10.73;;;;;;;18.17;34.26;100230.44;4445733;32;33237;-86
2022/02/11 12:30:22;;;;;;;13.18;8.73;;;;;;;18.01;34.86;100240.47;4452878;32;34367;-86
2022/02/11 12:36:17;;;;;;;12.15;7.43;;;;;;;17.69;34.43;100242.59;4457095;32;32006;-86
2022/02/11 12:38:56;;;;;;;14.63;7.62;;;;;;;17.21;34.83;100243.97;4448174;32;33849;-86
2022/02/11 12:41:24;;;;;;;11.57;5.80;;;;;;;17.40;35.14;100249.84;4445979;32;33411;-86
2022/02/11 12:43:58;;;;;;;9.05;5.15;;;;;;;16.78;35.80;100255.53;4462562;32;33900;-86
2022/02/11 12:46:26;;;;;;;7.43;4.80;;;;;;;16.58;36.57;100259.41;4447694;32;32251;-86
2022/02/11 12:48:58;;;;;;;9.90;5.10;;;;;;;16.52;36.64;100272.25;4436055;32;32836;-86
2022/02/11 12:51:26;;;;;;;8.82;5.28;;;;;;;16.20;37.69;100266.19;4446750;32;33757;-85
2022/02/11 12:54:04;;;;;;;5.97;4.72;;;;;;;16.10;37.06;100272.06;4444709;32;32287;-86
2022/02/11 12:56:33;;;;;;;7.93;4.93;;;;;;;15.96;37.88;100266.69;4459558;32;34159;-86
2022/02/11 12:59:06;;;;;;;9.38;4.32;;;;;;;15.88;38.50;100271.59;4454750;32;33140;-85
2022/02/11 13:01:33;;;;;;;8.35;3.80;;;;;;;15.52;37.67;100279.84;4440830;32;33395;-86
2022/02/11 13:04:01;;;;;;;10.85;4.68;;;;;;;15.10;38.17;100284.84;4439036;32;33864;-85
2022/02/11 13:06:32;;;;;;;8.60;4.90;;;;;;;14.75;39.24;100296.50;4440805;32;32985;-85
2022/02/11 13:09:06;;;;;;;7.35;4.55;;;;;;;14.43;39.84;100298.13;4441857;32;32596;-85
2022/02/11 13:11:54;;;;;;;6.72;4.43;;;;;;;14.20;40.69;100307.31;4449365;32;33970;-85
2022/02/11 13:14:22;;;;;;;11.20;5.68;;;;;;;13.87;42.22;100321.31;4445453;32;34564;-85
2022/02/11 13:16:50;;;;;;;10.73;6.40;;;;;;;13.71;42.79;100320.34;4449944;32;34361;-86
2022/02/11 13:19:18;;;;;;;8.57;5.90;;;;;;;13.67;43.53;100324.06;4440033;32;33000;-85
2022/02/11 13:21:46;;;;;;;13.70;6.68;;;;;;;13.42;45.19;100321.72;4442150;32;34875;-85
2022/02/11 13:24:14;;;;;;;19.05;7.55;;;;;;;13.54;44.68;100334.44;4461161;32;33394;-87
2022/02/11 13:26:43;;;;;;;14.15;7.28;;;;;;;13.12;45.92;100340.75;4439786;32;33286;-87
2022/02/11 13:29:25;;;;;;;10.85;6.82;;;;;;;13.25;45.36;100344.59;4435011;32;32873;-86
2022/02/11 13:31:54;;;;;;;14.20;8.05;;;;;;;13.01;46.31;100361.59;4432711;32;32932;-87
2022/02/11 13:34:22;;;;;;;17.58;8.20;;;;;;;13.29;45.87;100361.22;4450641;32;32681;-87
2022/02/11 13:37:14;;;;;;;13.95;7.90;;;;;;;12.90;47.06;100372.66;4447094;32;32940;-87
2022/02/11 13:39:42;;;;;;;;;;;;;;;13.03;46.58;100376.47;4448024;32;33925;-87
2022/02/11 13:42:11;;;;;;;13.25;6.68;;;;;;;13.00;46.50;100373.09;4432458;32;33759;-89
2022/02/11 13:44:39;;;;;;;11.18;6.85;;;;;;;12.75;46.85;100375.97;4426768;32;32382;-89
2022/02/11 13:47:16;;;;;;;14.98;6.68;;;;;;;12.73;47.40;100377.84;4438357;32;31358;-89
2022/02/11 13:49:51;;;;;;;17.45;6.45;;;;;;;12.36;48.35;100389.13;4423277;32;33119;-89
2022/02/11 13:55:16;;;;;;;8.52;5.07;;;;;;;12.87;47.04;100401.09;4437017;32;32589;-89
2022/02/11 13:57:44;;;;;;;7.55;4.85;;;;;;;12.64;47.61;100399.44;4434729;32;33317;-89
2022/02/11 14:00:26;;;;;;;8.93;4.82;;;;;;;12.42;48.18;100413.56;4424303;32;32432;-89
2022/02/11 14:02:54;;;;;;;10.13;4.72;;;;;;;12.04;49.09;100423.06;4438383;32;33263;-88
2022/02/11 14:05:22;;;;;;;6.82;4.72;;;;;;;11.75;50.18;100429.47;4440660;32;32620;-89
2022/02/11 14:07:55;;;;;;;9.23;5.00;;;;;;;12.01;49.77;100418.78;4427141;32;33554;-89
2022/02/11 14:10:24;;;;;;;7.75;4.87;;;;;;;11.97;49.80;100424.25;4426342;32;34514;-90
2022/02/11 14:13:08;;;;;;;12.73;5.30;;;;;;;11.50;51.26;100419.84;4435563;32;33985;-86
2022/02/11 14:15:41;;;;;;;11.48;5.10;;;;;;;12.20;49.81;100425.97;4438088;32;36209;-86
2022/02/11 14:18:09;;;;;;;13.23;6.05;;;;;;;12.14;49.43;100426.22;4448908;32;33845;-86
2022/02/11 14:20:38;;;;;;;8.07;5.05;;;;;;;12.04;49.91;100431.00;4436764;32;33382;-88
2022/02/11 14:23:16;;;;;;;8.70;4.87;;;;;;;12.14;49.80;100431.50;4445823;32;33600;-88
2022/02/11 14:25:46;;;;;;;7.25;3.97;;;;;;;12.07;49.93;100438.00;4429736;32;30847;-88
2022/02/11 14:28:16;;;;;;;7.72;5.57;;;;;;;11.88;50.53;100435.19;4445952;32;33057;-88
2022/02/11 14:30:44;;;;;;;8.02;4.68;;;;;;;12.02;50.29;100432.88;4449186;32;32840;-88
2022/02/11 14:33:12;;;;;;;7.82;4.95;;;;;;;12.07;50.25;100430.03;4448742;32;34095;-87
2022/02/11 14:35:40;;;;;;;10.52;5.60;;;;;;;12.30;49.66;100432.63;4433952;32;34035;-88
2022/02/11 14:38:08;;;;;;;10.90;6.25;;;;;;;12.28;49.68;100435.31;4443185;32;33442;-88
2022/02/11 14:40:38;;;;;;;8.80;5.47;;;;;;;12.00;50.65;100437.34;4439987;32;33548;-88
2022/02/11 14:43:06;;;;;;;10.77;6.62;;;;;;;12.09;50.63;100438.78;4449401;32;33249;-89
2022/02/11 14:45:33;;;;;;;10.85;6.32;;;;;;;12.23;50.12;100439.09;4443831;32;34145;-88
2022/02/11 14:48:03;;;;;;;11.88;6.22;;;;;;;12.30;50.14;100443.22;4436085;32;32948;-88
2022/02/11 14:50:30;;;;;;;8.35;5.75;;;;;;;11.89;51.17;100443.06;4444978;32;31652;-88
2022/02/11 14:53:04;;;;;;;11.45;5.47;;;;;;;12.08;50.71;100447.63;4455028;32;33930;-87
2022/02/11 14:55:34;;;;;;;11.30;7.12;;;;;;;11.83;51.41;100453.91;4445365;32;34017;-88
2022/02/11 14:58:03;;;;;;;9.85;5.65;;;;;;;11.98;51.12;100458.59;4438032;32;32816;-88
2022/02/11 15:00:30;;;;;;;9.02;5.32;;;;;;;12.18;50.36;100463.09;4441638;32;34145;-88
2022/02/11 15:02:59;;;;;;;9.93;5.37;;;;;;;12.39;49.82;100464.03;4440334;32;34692;-87
2022/02/11 15:05:26;;;;;;;9.27;4.78;;;;;;;12.12;50.59;100471.28;4436276;32;32628;-88
2022/02/11 15:07:54;;;;;;;10.50;4.25;;;;;;;12.00;51.24;100472.62;4426419;32;31767;-89
2022/02/11 15:10:24;;;;;;;9.05;3.67;;;;;;;12.14;50.88;100476.50;4428925;32;31899;-88
2022/02/11 15:12:55;;;;;;;7.20;3.70;;;;;;;12.07;51.28;100483.84;4445970;32;33519;-88
2022/02/11 15:15:22;;;;;;;4.12;2.40;;;;;;;11.66;52.47;100488.03;4425579;32;34163;-88
2022/02/11 15:17:50;;;;;;;2.40;1.75;;;;;;;11.71;52.33;100481.63;4423999;32;32259;-87
2022/02/11 15:20:18;;;;;;;3.35;1.85;;;;;;;11.44;53.34;100483.53;4428891;32;32940;-88
2022/02/11 15:22:45;;;;;;;2.97;1.52;;;;;;;11.63;53.01;100489.00;4427172;32;33246;-89
2022/02/11 15:25:13;;;;;;;3.78;1.73;;;;;;;11.99;52.15;100492.06;4447709;32;33624;-88